Time;durP1;ratioP1;P1;durP2;ratioP2;P2;SDS_P1;SDS_P2;PMS_P1;PMS_P2;Temp;Humidity;BMP_temperature;BMP_pressure;BME280_temperature;BME280_humidity;BME280_pressure;Samples;Min_cycle;Max_cycle;Signal;HPM_P1;HPM_P2
2024/04/17 00:01:05;;;;;;;0.75;0.22;;;17.30;85.60;;;;;;5417860;26;20035;-40
2024/04/17 00:03:30;;;;;;;0.28;0.17;;;17.30;85.60;;;;;;5417784;26;19999;-42
2024/04/17 00:05:56;;;;;;;0.57;0.35;;;17.30;85.60;;;;;;5417801;26;20488;-42
2024/04/17 00:08:21;;;;;;;0.10;0.10;;;17.30;85.60;;;;;;5417387;26;20004;-42
2024/04/17 00:10:47;;;;;;;0.13;0.10;;;17.30;86.40;;;;;;5418083;26;19999;-42
2024/04/17 00:13:13;;;;;;;0.45;0.20;;;17.30;85.70;;;;;;5417828;26;20013;-41
2024/04/17 00:15:39;;;;;;;0.55;0.20;;;17.30;85.70;;;;;;5418032;26;19996;-44
2024/04/17 00:18:05;;;;;;;0.20;0.20;;;17.40;85.80;;;;;;5417540;26;20003;-42
2024/04/17 00:20:30;;;;;;;0.13;0.10;;;17.30;85.70;;;;;;5415637;26;20075;-41
2024/04/17 00:22:56;;;;;;;0.70;0.20;;;17.30;85.70;;;;;;5417622;26;19995;-44
2024/04/17 00:25:21;;;;;;;0.57;0.22;;;17.30;85.80;;;;;;5418132;26;20004;-42
2024/04/17 00:27:47;;;;;;;0.63;0.20;;;17.30;85.80;;;;;;5417731;26;20007;-40
2024/04/17 00:30:13;;;;;;;0.17;0.08;;;17.30;85.90;;;;;;5417265;26;19999;-43
2024/04/17 00:32:38;;;;;;;0.55;0.20;;;17.30;85.90;;;;;;5416399;26;20340;-42
2024/04/17 00:35:04;;;;;;;0.22;0.10;;;17.30;85.90;;;;;;5417247;26;19996;-41
2024/04/17 00:37:29;;;;;;;0.43;0.10;;;17.20;85.90;;;;;;5417258;26;20003;-40
2024/04/17 00:39:55;;;;;;;0.20;0.10;;;17.30;85.90;;;;;;5417240;26;20356;-41
2024/04/17 00:42:21;;;;;;;0.28;0.10;;;17.30;85.90;;;;;;5417249;26;19999;-43
2024/04/17 00:44:46;;;;;;;0.60;0.20;;;17.20;85.90;;;;;;5417271;26;20075;-42
2024/04/17 00:47:12;;;;;;;0.80;0.30;;;17.20;86.00;;;;;;5417167;26;20010;-43
2024/04/17 00:49:38;;;;;;;0.35;0.10;;;17.20;86.00;;;;;;5416932;26;20000;-41
2024/04/17 00:52:05;;;;;;;0.32;0.20;;;17.20;86.70;;;;;;5417121;26;20007;-40
2024/04/17 00:54:30;;;;;;;0.30;0.13;;;17.20;86.00;;;;;;5417153;26;20035;-40
2024/04/17 00:56:56;;;;;;;0.43;0.10;;;17.20;86.00;;;;;;5417084;26;20068;-40
2024/04/17 00:59:22;;;;;;;0.50;0.20;;;17.20;85.90;;;;;;5416940;26;20010;-40
2024/04/17 01:01:48;;;;;;;0.30;0.17;;;17.20;85.90;;;;;;5415017;26;20020;-40
2024/04/17 01:04:14;;;;;;;0.52;0.20;;;17.20;85.90;;;;;;5416990;26;20014;-40
2024/04/17 01:06:41;;;;;;;0.45;0.17;;;17.20;86.00;;;;;;5416954;26;20006;-40
2024/04/17 01:09:07;;;;;;;0.10;0.10;;;17.20;86.00;;;;;;5417169;26;20015;-42
2024/04/17 01:11:42;;;;;;;0.20;0.10;;;17.20;86.00;;;;;;5416949;26;20449;-41
2024/04/17 01:14:08;;;;;;;0.40;0.10;;;17.20;86.00;;;;;;5416894;26;20352;-41
2024/04/17 01:16:39;;;;;;;0.28;0.20;;;17.20;86.70;;;;;;5416920;26;20007;-40
2024/04/17 01:19:08;;;;;;;0.43;0.20;;;17.20;86.00;;;;;;5416655;26;19995;-42
2024/04/17 01:21:33;;;;;;;0.20;0.10;;;17.20;85.90;;;;;;5416754;26;20414;-43
2024/04/17 01:23:59;;;;;;;0.20;0.20;;;17.20;86.00;;;;;;5416757;26;20011;-40
2024/04/17 01:26:24;;;;;;;0.28;0.10;;;17.20;86.00;;;;;;5416675;26;20018;-40
2024/04/17 01:28:50;;;;;;;0.30;0.10;;;17.10;85.90;;;;;;5416316;26;19995;-40
2024/04/17 01:31:16;;;;;;;0.08;0.00;;;17.10;86.00;;;;;;5416555;26;20329;-42
2024/04/17 01:33:41;;;;;;;0.85;0.15;;;17.10;86.00;;;;;;5416680;26;20010;-40
2024/04/17 01:36:08;;;;;;;0.20;0.13;;;17.10;86.00;;;;;;5416555;26;20449;-41
2024/04/17 01:38:33;;;;;;;0.95;0.20;;;17.10;86.00;;;;;;5416321;26;20006;-40
2024/04/17 01:41:00;;;;;;;0.08;0.00;;;17.10;86.00;;;;;;5416444;26;20049;-42
2024/04/17 01:43:26;;;;;;;0.30;0.15;;;17.10;86.00;;;;;;5414513;26;20359;-43
2024/04/17 01:45:52;;;;;;;0.10;0.10;;;17.10;86.10;;;;;;5416532;26;20045;-42
2024/04/17 01:48:18;;;;;;;0.40;0.20;;;17.10;86.00;;;;;;5416079;26;19999;-43
2024/04/17 01:50:44;;;;;;;0.10;0.10;;;17.10;86.00;;;;;;5416312;26;20000;-42
2024/04/17 01:53:10;;;;;;;0.00;0.00;;;17.10;86.00;;;;;;5416254;26;20011;-40
2024/04/17 01:55:35;;;;;;;0.10;0.10;;;17.10;86.10;;;;;;5416410;26;20003;-39
2024/04/17 01:58:01;;;;;;;0.65;0.10;;;17.10;86.10;;;;;;5416524;26;19999;-40
2024/04/17 02:00:27;;;;;;;0.10;0.10;;;17.10;86.00;;;;;;5416538;26;20046;-40
2024/04/17 02:02:52;;;;;;;0.30;0.10;;;17.10;86.00;;;;;;5416122;26;20006;-40
2024/04/17 02:05:18;;;;;;;0.20;0.20;;;17.10;86.10;;;;;;5416301;26;19996;-41
2024/04/17 02:07:43;;;;;;;0.03;0.03;;;17.00;86.00;;;;;;5416026;26;20352;-39
2024/04/17 02:10:09;;;;;;;0.17;0.10;;;17.00;86.00;;;;;;5415970;26;19995;-42
2024/04/17 02:12:35;;;;;;;0.20;0.10;;;17.00;86.10;;;;;;5415905;26;20341;-42
2024/04/17 02:15:00;;;;;;;0.10;0.10;;;17.00;86.00;;;;;;5415901;26;20005;-42
2024/04/17 02:17:26;;;;;;;0.10;0.00;;;17.00;86.00;;;;;;5416019;26;20000;-43
2024/04/17 02:19:52;;;;;;;0.95;0.03;;;17.00;86.00;;;;;;5415948;26;20006;-40
2024/04/17 02:22:17;;;;;;;0.00;0.00;;;17.00;86.00;;;;;;5415809;26;20423;-40
2024/04/17 02:24:43;;;;;;;0.65;0.10;;;17.00;86.00;;;;;;5415899;26;20014;-40
2024/04/17 02:27:08;;;;;;;0.00;0.00;;;17.00;86.00;;;;;;5415710;26;19999;-41
2024/04/17 02:29:34;;;;;;;0.00;0.00;;;17.00;86.00;;;;;;5415645;26;20460;-40
2024/04/17 02:31:59;;;;;;;0.10;0.03;;;17.00;86.00;;;;;;5415578;26;20068;-42
2024/04/17 02:34:25;;;;;;;0.30;0.20;;;17.00;86.00;;;;;;5415630;26;20046;-40
2024/04/17 02:36:51;;;;;;;0.03;0.00;;;17.00;86.10;;;;;;5415692;26;20337;-42
2024/04/17 02:39:16;;;;;;;0.55;0.05;;;17.00;86.10;;;;;;5415987;26;20000;-41
2024/04/17 02:41:42;;;;;;;0.08;0.00;;;17.00;86.00;;;;;;5415606;26;19996;-41
2024/04/17 02:44:07;;;;;;;0.08;0.00;;;17.00;86.00;;;;;;5415695;26;19999;-40
2024/04/17 02:46:33;;;;;;;0.15;0.00;;;17.00;86.10;;;;;;5415806;26;20010;-43
2024/04/17 02:48:59;;;;;;;0.52;0.10;;;17.00;86.10;;;;;;5415305;26;20048;-40
2024/04/17 02:51:25;;;;;;;0.10;0.10;;;17.00;86.10;;;;;;5415534;26;20351;-41
2024/04/17 02:53:50;;;;;;;0.10;0.10;;;16.90;86.00;;;;;;5415606;26;20014;-39
2024/04/17 02:56:16;;;;;;;0.22;0.10;;;16.90;86.10;;;;;;5418629;26;20499;-40
2024/04/17 02:58:42;;;;;;;0.20;0.10;;;16.90;86.10;;;;;;5418574;26;20153;-44
2024/04/17 03:01:15;;;;;;;0.10;0.10;;;16.90;86.10;;;;;;5418607;26;20456;-42
2024/04/17 03:03:40;;;;;;;0.08;0.00;;;16.90;86.10;;;;;;5419097;26;19996;-41
2024/04/17 03:06:07;;;;;;;0.30;0.10;;;16.90;86.10;;;;;;5419049;26;20074;-42
2024/04/17 03:08:33;;;;;;;0.15;0.08;;;16.90;86.10;;;;;;5417039;26;20003;-44
2024/04/17 03:10:59;;;;;;;0.40;0.10;;;16.90;86.20;;;;;;5418948;26;20010;-43
2024/04/17 03:13:24;;;;;;;0.13;0.10;;;16.90;86.10;;;;;;5418829;26;20010;-44
2024/04/17 03:15:50;;;;;;;0.40;0.10;;;16.90;86.10;;;;;;5418800;26;19995;-43
2024/04/17 03:18:16;;;;;;;0.43;0.17;;;16.90;86.20;;;;;;5418455;26;20481;-39
2024/04/17 03:20:41;;;;;;;0.00;0.00;;;16.90;86.30;;;;;;5418544;26;20356;-42
2024/04/17 03:23:07;;;;;;;0.35;0.10;;;16.80;86.20;;;;;;5418791;26;20000;-43
2024/04/17 03:25:33;;;;;;;0.57;0.10;;;16.90;86.30;;;;;;5418745;26;20496;-43
2024/04/17 03:27:59;;;;;;;0.10;0.00;;;16.90;86.30;;;;;;5418413;26;19995;-40
2024/04/17 03:30:25;;;;;;;0.00;0.00;;;16.90;86.40;;;;;;5418968;26;20020;-43
2024/04/17 03:32:51;;;;;;;0.10;0.10;;;16.90;86.50;;;;;;5418845;26;20046;-40
2024/04/17 03:35:16;;;;;;;0.20;0.10;;;16.80;86.40;;;;;;5418663;26;20010;-40
2024/04/17 03:37:42;;;;;;;0.30;0.10;;;16.80;86.50;;;;;;5418524;26;19999;-44
2024/04/17 03:40:08;;;;;;;0.47;0.10;;;16.80;86.50;;;;;;5418272;26;20410;-43
2024/04/17 03:42:34;;;;;;;0.30;0.15;;;16.80;86.60;;;;;;5418469;26;19995;-41
2024/04/17 03:44:59;;;;;;;0.20;0.20;;;16.80;86.70;;;;;;5418440;26;20040;-43
2024/04/17 03:47:25;;;;;;;0.10;0.00;;;16.80;86.60;;;;;;5418336;26;20007;-40
2024/04/17 03:49:50;;;;;;;0.10;0.10;;;16.80;86.60;;;;;;5417982;26;20004;-40
2024/04/17 03:52:16;;;;;;;0.10;0.08;;;16.80;86.60;;;;;;5418313;26;19999;-40
2024/04/17 03:54:42;;;;;;;0.00;0.00;;;16.80;86.70;;;;;;5418252;26;20004;-40
2024/04/17 03:57:07;;;;;;;0.60;0.10;;;16.80;86.70;;;;;;5416046;26;19996;-41
2024/04/17 03:59:33;;;;;;;0.00;0.00;;;16.80;86.80;;;;;;5418211;26;20423;-42
2024/04/17 04:01:59;;;;;;;0.10;0.00;;;16.80;86.80;;;;;;5417937;26;20072;-41
2024/04/17 04:04:24;;;;;;;0.40;0.17;;;16.80;86.90;;;;;;5418170;26;20011;-40
2024/04/17 04:06:50;;;;;;;0.20;0.10;;;16.80;86.90;;;;;;5416910;26;20371;-42
2024/04/17 04:09:16;;;;;;;0.00;0.00;;;16.80;86.90;;;;;;5417883;26;20495;-42
2024/04/17 04:11:41;;;;;;;0.10;0.08;;;16.70;86.80;;;;;;5418060;26;20011;-41
2024/04/17 04:14:07;;;;;;;0.52;0.20;;;16.70;86.90;;;;;;5417924;26;20009;-43
2024/04/17 04:16:33;;;;;;;0.43;0.10;;;16.70;86.90;;;;;;5417972;26;20520;-40
2024/04/17 04:18:59;;;;;;;0.55;0.05;;;16.70;87.00;;;;;;5417774;26;20008;-39
2024/04/17 04:21:25;;;;;;;0.00;0.00;;;16.80;87.10;;;;;;5417846;26;20015;-40
2024/04/17 04:23:50;;;;;;;0.40;0.00;;;16.70;87.00;;;;;;5417946;26;20010;-41
2024/04/17 04:26:16;;;;;;;0.57;0.10;;;16.70;87.10;;;;;;5417823;26;20009;-42
2024/04/17 04:28:42;;;;;;;0.20;0.10;;;16.70;87.10;;;;;;5417598;26;19995;-40
2024/04/17 04:31:07;;;;;;;0.00;0.00;;;16.70;87.20;;;;;;5417690;26;19996;-40
2024/04/17 04:33:33;;;;;;;0.10;0.10;;;16.70;87.20;;;;;;5417779;26;19995;-40
2024/04/17 04:35:58;;;;;;;0.05;0.03;;;16.70;87.20;;;;;;5417867;26;20444;-43
2024/04/17 04:38:25;;;;;;;0.30;0.10;;;16.70;87.30;;;;;;5417511;26;19999;-43
2024/04/17 04:40:50;;;;;;;0.55;0.10;;;16.70;87.30;;;;;;5417649;26;20014;-42
2024/04/17 04:43:16;;;;;;;0.50;0.20;;;16.70;87.40;;;;;;5417621;26;20449;-44
2024/04/17 04:45:42;;;;;;;0.03;0.00;;;16.70;87.30;;;;;;5417413;26;20007;-40
2024/04/17 04:48:07;;;;;;;0.22;0.10;;;16.70;87.30;;;;;;5417302;26;20003;-40
2024/04/17 04:50:33;;;;;;;1.75;0.30;;;16.70;87.30;;;;;;5417207;26;20011;-44
2024/04/17 04:52:59;;;;;;;0.77;0.32;;;16.50;84.10;;;;;;5417050;26;20416;-41
2024/04/17 04:55:24;;;;;;;0.30;0.20;;;16.10;84.90;;;;;;5417319;26;19999;-44
2024/04/17 04:57:50;;;;;;;1.20;0.43;;;16.00;85.80;;;;;;5416724;26;20069;-44
2024/04/17 05:00:16;;;;;;;0.40;0.30;;;16.00;86.40;;;;;;5416895;26;19996;-42
2024/04/17 05:02:41;;;;;;;0.80;0.50;;;16.00;86.60;;;;;;5417101;26;19995;-41
2024/04/17 05:05:07;;;;;;;0.30;0.20;;;16.10;86.60;;;;;;5417609;26;19992;-42
2024/04/17 05:07:33;;;;;;;0.80;0.30;;;16.20;86.60;;;;;;5417462;26;20008;-44
2024/04/17 05:09:58;;;;;;;1.17;0.30;;;16.30;86.60;;;;;;5416927;26;20473;-41
2024/04/17 05:12:24;;;;;;;2.50;0.43;;;16.30;86.60;;;;;;5416887;26;19999;-43
2024/04/17 05:14:49;;;;;;;1.00;0.40;;;16.30;86.60;;;;;;5416747;26;20006;-42
2024/04/17 05:17:15;;;;;;;0.60;0.20;;;16.30;86.60;;;;;;5416497;26;19995;-42
2024/04/17 05:19:40;;;;;;;0.57;0.32;;;16.40;86.60;;;;;;5416741;26;19995;-42
2024/04/17 05:22:06;;;;;;;0.47;0.40;;;16.40;86.60;;;;;;5417034;26;20006;-41
2024/04/17 05:24:32;;;;;;;1.48;0.55;;;16.40;86.50;;;;;;5416974;26;20028;-45
2024/04/17 05:26:57;;;;;;;1.00;0.40;;;16.40;86.60;;;;;;5417058;26;19995;-44
2024/04/17 05:29:23;;;;;;;1.10;0.40;;;16.40;86.60;;;;;;5416794;26;20000;-44
2024/04/17 05:31:48;;;;;;;1.15;0.40;;;16.50;86.70;;;;;;5416966;26;19999;-42
2024/04/17 05:34:14;;;;;;;0.70;0.45;;;16.50;86.70;;;;;;5417021;26;20075;-42
2024/04/17 05:36:40;;;;;;;1.52;0.47;;;16.40;86.70;;;;;;5415194;26;19996;-45
2024/04/17 05:39:06;;;;;;;0.50;0.40;;;16.40;86.80;;;;;;5415090;26;19992;-46
2024/04/17 05:41:31;;;;;;;1.40;0.45;;;16.50;86.90;;;;;;5416687;26;20445;-41
2024/04/17 05:43:57;;;;;;;0.63;0.40;;;16.50;86.90;;;;;;5414778;26;20069;-43
2024/04/17 05:46:25;;;;;;;1.05;0.40;;;16.50;86.90;;;;;;5416554;26;20072;-41
2024/04/17 05:48:51;;;;;;;1.27;0.40;;;16.50;87.00;;;;;;5416424;26;19995;-42
2024/04/17 05:51:17;;;;;;;1.27;0.50;;;16.50;87.00;;;;;;5416551;26;20007;-42
2024/04/17 05:53:42;;;;;;;0.75;0.38;;;16.50;87.00;;;;;;5416212;26;20000;-44
2024/04/17 05:56:08;;;;;;;0.90;0.47;;;16.50;87.10;;;;;;5416358;26;20067;-44
2024/04/17 05:58:34;;;;;;;0.93;0.40;;;16.40;87.50;;;;;;5416432;26;19992;-43
2024/04/17 06:00:59;;;;;;;0.50;0.40;;;16.50;87.20;;;;;;5416641;26;19995;-45
2024/04/17 06:03:25;;;;;;;0.70;0.40;;;16.40;87.20;;;;;;5414730;26;20543;-42
2024/04/17 06:05:50;;;;;;;1.83;0.50;;;16.40;87.20;;;;;;5416627;26;20003;-44
2024/04/17 06:08:16;;;;;;;1.23;0.45;;;16.40;87.30;;;;;;5416208;26;20010;-44
2024/04/17 06:10:42;;;;;;;0.60;0.40;;;16.40;87.20;;;;;;5416117;26;20000;-40
2024/04/17 06:13:07;;;;;;;1.05;0.40;;;16.40;87.30;;;;;;5416034;26;20456;-41
2024/04/17 06:15:35;;;;;;;0.90;0.40;;;16.40;87.30;;;;;;5416416;26;19991;-41
2024/04/17 06:18:02;;;;;;;0.57;0.35;;;16.40;87.30;;;;;;5415893;26;20330;-44
2024/04/17 06:20:28;;;;;;;0.80;0.40;;;16.40;87.40;;;;;;5416098;26;19999;-42
2024/04/17 06:22:53;;;;;;;0.63;0.32;;;16.40;87.50;;;;;;5416491;26;20010;-41
2024/04/17 06:25:19;;;;;;;0.65;0.50;;;16.40;87.50;;;;;;5416421;26;20007;-43
2024/04/17 06:27:45;;;;;;;1.15;0.30;;;16.40;87.50;;;;;;5416050;26;20407;-44
2024/04/17 06:30:10;;;;;;;0.60;0.40;;;16.40;87.60;;;;;;5414583;26;20044;-40
2024/04/17 06:32:36;;;;;;;1.40;0.40;;;16.40;87.60;;;;;;5415670;26;20039;-41
2024/04/17 06:35:02;;;;;;;1.88;0.50;;;16.40;87.60;;;;;;5415548;26;20018;-41
2024/04/17 06:37:28;;;;;;;1.58;0.40;;;16.40;87.70;;;;;;5416285;26;19995;-41
2024/04/17 06:39:54;;;;;;;1.83;1.60;;;16.40;87.60;;;;;;5415682;26;20005;-40
2024/04/17 06:42:19;;;;;;;1.50;1.40;;;16.30;86.20;;;;;;5415485;26;20094;-40
2024/04/17 06:44:45;;;;;;;2.08;1.40;;;16.00;87.60;;;;;;5415638;26;19996;-40
2024/04/17 06:47:10;;;;;;;2.88;1.20;;;15.80;88.50;;;;;;5415297;26;19995;-40
2024/04/17 06:49:36;;;;;;;2.00;1.33;;;15.80;89.40;;;;;;5415427;26;20008;-40
2024/04/17 06:52:02;;;;;;;1.20;1.10;;;15.80;90.20;;;;;;5415546;26;20012;-40
2024/04/17 06:54:28;;;;;;;1.23;1.02;;;15.90;90.70;;;;;;5415256;26;19995;-40
2024/04/17 06:56:53;;;;;;;2.00;1.00;;;16.00;91.10;;;;;;5415207;26;19999;-40
2024/04/17 06:59:19;;;;;;;1.27;0.98;;;16.00;91.30;;;;;;5415175;26;20022;-40
2024/04/17 07:01:45;;;;;;;1.48;1.08;;;16.10;91.50;;;;;;5415061;26;19995;-40
2024/04/17 07:04:10;;;;;;;1.05;0.82;;;16.20;91.80;;;;;;5415226;26;20010;-40
2024/04/17 07:06:37;;;;;;;1.15;0.90;;;16.20;91.90;;;;;;5415134;26;20011;-39
2024/04/17 07:09:03;;;;;;;1.00;0.70;;;16.20;92.00;;;;;;5413425;26;20010;-39
2024/04/17 07:11:29;;;;;;;1.30;0.70;;;16.20;92.20;;;;;;5415175;26;20325;-40
2024/04/17 07:13:55;;;;;;;0.73;0.60;;;16.30;92.30;;;;;;5415064;26;20001;-39
2024/04/17 07:16:20;;;;;;;0.90;0.70;;;16.30;92.50;;;;;;5414852;26;19995;-40
2024/04/17 07:18:46;;;;;;;0.70;0.65;;;16.30;92.60;;;;;;5414922;26;20005;-39
2024/04/17 07:21:12;;;;;;;1.58;0.60;;;16.30;92.80;;;;;;5414987;26;20001;-40
2024/04/17 07:23:38;;;;;;;0.77;0.50;;;16.30;92.90;;;;;;5415042;26;20003;-39
2024/04/17 07:26:04;;;;;;;1.40;0.47;;;16.30;93.10;;;;;;5414783;26;20066;-39
2024/04/17 07:28:30;;;;;;;0.65;0.50;;;16.30;93.10;;;;;;5414660;26;20007;-39
2024/04/17 07:30:55;;;;;;;0.60;0.50;;;16.30;93.30;;;;;;5414489;26;20003;-40
2024/04/17 07:33:21;;;;;;;0.60;0.50;;;16.20;93.40;;;;;;5414556;26;20441;-40
2024/04/17 07:35:46;;;;;;;0.60;0.40;;;16.30;93.50;;;;;;5414758;26;19995;-39
2024/04/17 07:38:12;;;;;;;1.33;0.47;;;16.30;93.60;;;;;;5414467;26;20423;-39
2024/04/17 07:40:38;;;;;;;0.85;0.40;;;16.30;93.80;;;;;;5415083;26;19996;-39
2024/04/17 07:43:05;;;;;;;0.70;0.30;;;16.30;93.80;;;;;;5418311;26;20326;-39
2024/04/17 07:45:30;;;;;;;0.40;0.35;;;16.30;94.30;;;;;;5418160;26;19999;-40
2024/04/17 07:47:56;;;;;;;0.30;0.30;;;16.20;93.90;;;;;;5417995;26;20414;-40
2024/04/17 07:50:21;;;;;;;0.30;0.30;;;16.20;94.00;;;;;;5417887;26;20074;-40
2024/04/17 07:52:47;;;;;;;0.65;0.30;;;16.20;94.00;;;;;;5418117;26;20452;-40
2024/04/17 07:55:13;;;;;;;0.60;0.40;;;16.30;94.20;;;;;;5417884;26;19996;-39
2024/04/17 07:57:38;;;;;;;0.60;0.38;;;16.20;94.30;;;;;;5417912;26;19999;-39
2024/04/17 08:00:05;;;;;;;0.17;0.17;;;16.20;94.30;;;;;;5417734;26;20009;-39
2024/04/17 08:02:31;;;;;;;0.90;0.40;;;16.20;94.30;;;;;;5417936;26;20333;-39
2024/04/17 08:04:57;;;;;;;0.20;0.20;;;16.20;94.30;;;;;;5416202;26;19992;-39
2024/04/17 08:07:22;;;;;;;0.70;0.30;;;16.20;94.20;;;;;;5417969;26;20450;-39
2024/04/17 08:09:48;;;;;;;0.20;0.20;;;16.20;94.30;;;;;;5418003;26;20015;-39
2024/04/17 08:12:13;;;;;;;0.30;0.20;;;16.20;94.40;;;;;;5417930;26;20068;-40
2024/04/17 08:14:39;;;;;;;0.40;0.25;;;16.20;94.40;;;;;;5417513;26;20199;-39
2024/04/17 08:17:05;;;;;;;0.93;0.40;;;16.20;94.30;;;;;;5417749;26;20003;-40
2024/04/17 08:19:30;;;;;;;0.65;0.20;;;16.30;94.30;;;;;;5417688;26;20004;-40
2024/04/17 08:21:56;;;;;;;0.30;0.30;;;16.20;94.30;;;;;;5417746;26;20010;-40
2024/04/17 08:24:22;;;;;;;0.77;0.35;;;16.20;94.20;;;;;;5417595;26;20018;-39
2024/04/17 08:26:48;;;;;;;0.35;0.20;;;16.30;94.30;;;;;;5417606;26;20506;-39
2024/04/17 08:29:13;;;;;;;0.85;0.43;;;16.30;94.10;;;;;;5417331;26;19999;-40
2024/04/17 08:31:39;;;;;;;0.30;0.30;;;16.30;94.10;;;;;;5417467;26;20345;-39
2024/04/17 08:34:05;;;;;;;0.32;0.22;;;16.30;94.00;;;;;;5417604;26;19999;-40
2024/04/17 08:36:30;;;;;;;0.60;0.30;;;16.30;94.10;;;;;;5417474;26;20006;-39
2024/04/17 08:38:56;;;;;;;0.28;0.28;;;16.30;94.20;;;;;;5445715;21;19998;-41
2024/04/17 08:41:27;;;;;;;0.40;0.20;;;16.30;94.30;;;;;;5453381;26;19999;-43
2024/04/17 08:43:59;;;;;;;0.30;0.30;;;16.30;94.50;;;;;;5453548;26;20009;-43
2024/04/17 08:46:25;;;;;;;0.45;0.30;;;16.30;94.60;;;;;;5453681;26;19999;-43
2024/04/17 08:48:52;;;;;;;1.55;0.30;;;16.30;94.60;;;;;;5453378;26;20006;-44
2024/04/17 08:51:19;;;;;;;0.60;0.30;;;16.30;94.70;;;;;;5453043;26;20052;-43
2024/04/17 08:53:45;;;;;;;0.55;0.40;;;16.20;94.80;;;;;;5450402;26;20435;-41
2024/04/17 08:56:12;;;;;;;0.52;0.30;;;16.30;95.00;;;;;;5453428;26;19999;-42
2024/04/17 08:58:39;;;;;;;0.65;0.40;;;16.20;95.00;;;;;;5452832;26;20031;-42
2024/04/17 09:01:06;;;;;;;0.68;0.47;;;16.30;95.20;;;;;;5452797;26;20009;-42
2024/04/17 09:03:35;;;;;;;0.35;0.30;;;16.30;95.10;;;;;;5453186;26;20010;-41
2024/04/17 09:06:01;;;;;;;0.40;0.30;;;16.30;95.20;;;;;;5452967;26;19995;-43
2024/04/17 09:08:28;;;;;;;1.05;0.47;;;16.30;95.20;;;;;;5452983;26;20348;-43
2024/04/17 09:10:57;;;;;;;0.30;0.20;;;16.30;95.30;;;;;;5452817;26;19995;-42
2024/04/17 09:13:22;;;;;;;0.80;0.30;;;16.30;95.30;;;;;;5453194;26;19999;-41
2024/04/17 09:15:49;;;;;;;0.28;0.20;;;16.20;95.30;;;;;;5452754;26;20001;-41
2024/04/17 09:18:14;;;;;;;0.22;0.20;;;16.30;95.40;;;;;;5452691;26;20008;-41
2024/04/17 09:20:42;;;;;;;0.50;0.30;;;16.30;95.40;;;;;;5452726;26;19998;-43
2024/04/17 09:23:09;;;;;;;1.17;0.50;;;16.30;95.30;;;;;;5452939;26;19994;-41
2024/04/17 09:25:36;;;;;;;0.95;0.40;;;16.30;95.40;;;;;;5453150;26;19991;-41
2024/04/17 09:28:02;;;;;;;1.25;0.32;;;16.30;95.50;;;;;;5452764;26;20082;-43
2024/04/17 09:30:27;;;;;;;0.40;0.30;;;16.20;95.40;;;;;;5452818;26;20011;-43
2024/04/17 09:32:53;;;;;;;0.22;0.20;;;16.20;95.40;;;;;;5452905;26;20010;-42
2024/04/17 09:35:18;;;;;;;0.40;0.28;;;16.20;95.40;;;;;;5452642;26;20067;-43
2024/04/17 09:37:44;;;;;;;0.40;0.32;;;16.20;95.40;;;;;;5452518;26;20006;-42
2024/04/17 09:40:10;;;;;;;0.70;0.25;;;16.20;95.50;;;;;;5452537;26;20044;-41
2024/04/17 09:42:37;;;;;;;0.80;0.50;;;16.20;95.60;;;;;;5452661;26;19998;-43
2024/04/17 09:45:04;;;;;;;0.40;0.40;;;16.20;95.60;;;;;;5452545;26;20022;-42
2024/04/17 09:47:31;;;;;;;0.47;0.30;;;16.10;95.60;;;;;;5452470;26;20096;-41
2024/04/17 09:49:59;;;;;;;0.93;0.40;;;16.10;95.60;;;;;;5452382;26;20023;-43
2024/04/17 09:52:29;;;;;;;0.68;0.43;;;16.10;96.00;;;;;;5452070;26;19999;-46
2024/04/17 09:54:56;;;;;;;0.52;0.30;;;16.10;95.70;;;;;;5452199;26;19994;-44
2024/04/17 09:57:22;;;;;;;0.55;0.40;;;16.10;95.60;;;;;;5451810;26;20077;-43
2024/04/17 09:59:49;;;;;;;0.90;0.43;;;16.10;95.70;;;;;;5452383;26;19999;-46
2024/04/17 10:02:16;;;;;;;0.70;0.35;;;16.10;95.70;;;;;;5452248;26;19995;-41
2024/04/17 10:04:43;;;;;;;0.75;0.40;;;16.10;95.70;;;;;;5450546;26;20005;-43
2024/04/17 10:07:13;;;;;;;1.08;0.50;;;16.10;95.80;;;;;;5452028;26;20347;-43
2024/04/17 10:09:42;;;;;;;0.50;0.47;;;16.10;95.70;;;;;;5451802;26;20066;-45
2024/04/17 10:12:11;;;;;;;0.55;0.40;;;16.10;95.60;;;;;;5452020;26;20067;-43
2024/04/17 10:14:38;;;;;;;0.95;0.45;;;16.10;95.50;;;;;;5451978;26;19998;-45
2024/04/17 10:17:09;;;;;;;1.42;0.50;;;16.20;95.40;;;;;;5452140;26;20001;-41
2024/04/17 10:19:35;;;;;;;0.43;0.40;;;16.20;95.30;;;;;;5452103;26;20023;-47
2024/04/17 10:22:05;;;;;;;0.52;0.38;;;16.30;95.30;;;;;;5451600;26;20040;-40
2024/04/17 10:24:30;;;;;;;0.93;0.60;;;16.30;95.30;;;;;;5451866;26;20340;-45
2024/04/17 10:26:59;;;;;;;0.80;0.50;;;16.30;95.40;;;;;;5450241;26;19994;-45
2024/04/17 10:29:26;;;;;;;0.63;0.30;;;16.30;95.30;;;;;;5451747;26;20009;-46
2024/04/17 10:32:10;;;;;;;0.60;0.40;;;16.30;95.30;;;;;;5451671;26;20324;-43
2024/04/17 10:34:44;;;;;;;1.05;0.60;;;16.30;95.40;;;;;;5451619;26;20007;-45
2024/04/17 10:37:10;;;;;;;1.02;0.60;;;16.30;95.50;;;;;;5451734;26;19998;-45
2024/04/17 10:39:40;;;;;;;0.40;0.30;;;16.30;95.50;;;;;;5451622;26;19995;-41
2024/04/17 10:42:13;;;;;;;2.53;0.60;;;16.30;95.40;;;;;;5451526;26;20071;-43
2024/04/17 10:44:50;;;;;;;1.55;0.73;;;16.40;95.40;;;;;;5451853;26;20432;-43
2024/04/17 10:47:26;;;;;;;2.25;0.60;;;16.40;95.30;;;;;;5451860;26;20339;-45
2024/04/17 10:49:58;;;;;;;1.80;0.70;;;16.40;95.30;;;;;;5451444;26;20007;-44
2024/04/17 10:52:25;;;;;;;0.77;0.40;;;16.50;95.30;;;;;;5451246;26;20012;-43
2024/04/17 10:54:54;;;;;;;0.70;0.45;;;16.50;95.30;;;;;;5451442;26;19995;-42
2024/04/17 10:57:20;;;;;;;2.05;0.68;;;16.50;95.30;;;;;;5451258;26;19995;-43
2024/04/17 10:59:47;;;;;;;1.73;0.63;;;16.50;95.40;;;;;;5451188;26;20010;-43
2024/04/17 11:02:13;;;;;;;1.02;0.50;;;16.50;95.30;;;;;;5451264;26;19999;-42
2024/04/17 11:04:39;;;;;;;1.35;0.60;;;16.50;95.20;;;;;;5451401;26;20035;-43
2024/04/17 11:07:08;;;;;;;0.90;0.43;;;16.60;95.30;;;;;;5451254;26;19994;-42
2024/04/17 11:09:34;;;;;;;1.88;0.80;;;16.50;95.30;;;;;;5451132;26;20002;-45
2024/04/17 11:12:00;;;;;;;1.58;0.70;;;16.50;95.30;;;;;;5450786;26;20367;-45
2024/04/17 11:14:25;;;;;;;1.33;0.40;;;16.60;95.20;;;;;;5451004;26;20429;-41
2024/04/17 11:16:51;;;;;;;1.45;0.65;;;16.60;95.30;;;;;;5453595;26;20071;-43
2024/04/17 11:19:18;;;;;;;1.20;0.60;;;16.60;95.20;;;;;;5454742;26;20005;-44
2024/04/17 11:21:44;;;;;;;1.25;0.60;;;16.60;95.30;;;;;;5454407;26;20006;-41
2024/04/17 11:24:20;;;;;;;1.38;0.60;;;16.50;95.40;;;;;;5454628;26;19995;-41
2024/04/17 11:26:45;;;;;;;1.30;0.70;;;16.60;95.30;;;;;;5454283;26;19995;-43
2024/04/17 11:29:21;;;;;;;1.63;0.65;;;16.60;95.30;;;;;;5454239;26;20067;-42
2024/04/17 11:31:47;;;;;;;1.08;0.60;;;16.60;95.20;;;;;;5452491;26;20344;-41
2024/04/17 11:34:24;;;;;;;1.42;0.60;;;16.60;95.20;;;;;;5454234;26;20071;-42
2024/04/17 11:36:49;;;;;;;1.23;0.50;;;16.60;95.20;;;;;;5454199;26;20093;-43
2024/04/17 11:39:19;;;;;;;0.68;0.50;;;16.60;95.30;;;;;;5454196;26;20455;-43
2024/04/17 11:41:49;;;;;;;1.40;0.60;;;16.60;95.20;;;;;;5454108;26;20002;-44
2024/04/17 11:44:14;;;;;;;1.15;0.52;;;16.60;95.20;;;;;;5454292;26;19999;-45
2024/04/17 11:46:40;;;;;;;1.58;0.65;;;16.60;95.20;;;;;;5454254;26;20466;-46
2024/04/17 11:49:09;;;;;;;1.98;0.80;;;16.60;95.20;;;;;;5454318;26;19999;-41
2024/04/17 11:51:35;;;;;;;1.63;0.60;;;16.60;95.20;;;;;;5454071;26;20325;-42
2024/04/17 11:54:03;;;;;;;5.40;1.80;;;16.60;95.20;;;;;;5453921;26;20006;-42
2024/04/17 11:56:29;;;;;;;8.60;1.90;;;16.50;90.40;;;;;;5454093;26;20344;-43
2024/04/17 11:58:55;;;;;;;7.28;2.30;;;16.30;90.40;;;;;;5453821;26;19998;-43
2024/04/17 12:01:20;;;;;;;5.10;1.58;;;16.20;91.70;;;;;;5453933;26;20007;-40
2024/04/17 12:03:46;;;;;;;4.50;1.55;;;16.10;92.30;;;;;;5454215;26;19999;-41
2024/04/17 12:06:12;;;;;;;4.00;1.52;;;16.10;92.60;;;;;;5454166;26;20075;-43
2024/04/17 12:08:38;;;;;;;4.43;1.70;;;16.20;92.80;;;;;;5453780;26;20009;-43
2024/04/17 12:11:03;;;;;;;5.63;1.50;;;16.30;93.00;;;;;;5453829;26;20327;-41
2024/04/17 12:13:29;;;;;;;3.22;1.25;;;16.30;93.10;;;;;;5454145;26;20509;-43
2024/04/17 12:15:55;;;;;;;5.20;1.55;;;16.40;93.30;;;;;;5453800;26;19999;-45
2024/04/17 12:18:20;;;;;;;4.30;1.40;;;16.40;93.40;;;;;;5453437;26;19999;-43
2024/04/17 12:20:46;;;;;;;3.35;1.23;;;16.40;93.60;;;;;;5453467;26;20010;-41
2024/04/17 12:23:18;;;;;;;6.43;1.52;;;16.50;93.80;;;;;;5452143;26;19995;-41
2024/04/17 12:28:30;;;;;;;4.45;1.55;;;16.50;94.20;;;;;;5452262;26;20524;-42
2024/04/17 12:30:55;;;;;;;3.22;1.33;;;16.40;94.50;;;;;;5453285;26;20340;-46
2024/04/17 12:33:21;;;;;;;2.13;1.08;;;16.50;94.60;;;;;;5453253;26;20006;-41
2024/04/17 12:35:47;;;;;;;2.15;1.33;;;16.40;94.70;;;;;;5453570;26;20002;-44
2024/04/17 12:38:13;;;;;;;1.65;1.08;;;16.40;94.70;;;;;;5453263;26;19995;-44
2024/04/17 12:40:40;;;;;;;2.70;1.10;;;16.40;94.80;;;;;;5453156;26;20025;-42
2024/04/17 12:43:06;;;;;;;4.70;1.30;;;16.30;94.80;;;;;;5453575;26;20009;-42
2024/04/17 12:45:32;;;;;;;1.60;1.10;;;16.40;95.00;;;;;;5453445;26;20009;-46